sensor_id;sensor_type;location;lat;lon;timestamp;pressure;altitude;pressure_sealevel;temperature;humidity
75933;BME280;64803;52.356;5.310;2023-07-08T00:00:23;102138.50;;;17.57;100.00
75933;BME280;64803;52.356;5.310;2023-07-08T00:02:51;102137.94;;;17.62;100.00
75933;BME280;64803;52.356;5.310;2023-07-08T00:05:20;102135.44;;;17.60;100.00
75933;BME280;64803;52.356;5.310;2023-07-08T00:07:46;102139.63;;;17.63;100.00
75933;BME280;64803;52.356;5.310;2023-07-08T00:10:21;102127.84;;;17.56;100.00
75933;BME280;64803;52.356;5.310;2023-07-08T00:12:50;102129.84;;;17.47;100.00
75933;BME280;64803;52.356;5.310;2023-07-08T00:15:17;102126.34;;;17.39;100.00
75933;BME280;64803;52.356;5.310;2023-07-08T00:17:43;102124.53;;;17.25;100.00
75933;BME280;64803;52.356;5.310;2023-07-08T00:20:31;102130.88;;;17.32;100.00
75933;BME280;64803;52.356;5.310;2023-07-08T00:22:58;102127.13;;;17.33;100.00
75933;BME280;64803;52.356;5.310;2023-07-08T00:25:31;102116.09;;;17.34;100.00
75933;BME280;64803;52.356;5.310;2023-07-08T00:27:58;102119.34;;;17.30;100.00
75933;BME280;64803;52.356;5.310;2023-07-08T00:30:26;102120.00;;;17.32;100.00
75933;BME280;64803;52.356;5.310;2023-07-08T00:32:53;102122.16;;;17.36;100.00
75933;BME280;64803;52.356;5.310;2023-07-08T00:37:54;102115.97;;;17.42;100.00
75933;BME280;64803;52.356;5.310;2023-07-08T00:40:29;102117.56;;;17.37;100.00
75933;BME280;64803;52.356;5.310;2023-07-08T00:42:56;102117.03;;;17.27;100.00
75933;BME280;64803;52.356;5.310;2023-07-08T00:48:07;102114.44;;;17.19;100.00
75933;BME280;64803;52.356;5.310;2023-07-08T00:50:34;102115.09;;;17.21;100.00
75933;BME280;64803;52.356;5.310;2023-07-08T00:53:23;102099.16;;;17.18;100.00
75933;BME280;64803;52.356;5.310;2023-07-08T00:55:59;102067.78;;;16.94;100.00
75933;BME280;64803;52.356;5.310;2023-07-08T00:58:32;102102.38;;;17.07;100.00
75933;BME280;64803;52.356;5.310;2023-07-08T01:01:00;102108.81;;;17.06;100.00
75933;BME280;64803;52.356;5.310;2023-07-08T01:03:27;102078.91;;;16.84;100.00
75933;BME280;64803;52.356;5.310;2023-07-08T01:05:55;102105.00;;;17.00;100.00
75933;BME280;64803;52.356;5.310;2023-07-08T01:08:27;102105.75;;;16.94;100.00
75933;BME280;64803;52.356;5.310;2023-07-08T01:11:00;102102.31;;;16.85;100.00
75933;BME280;64803;52.356;5.310;2023-07-08T01:13:34;102099.78;;;16.84;100.00
75933;BME280;64803;52.356;5.310;2023-07-08T01:16:01;102103.06;;;16.79;100.00
75933;BME280;64803;52.356;5.310;2023-07-08T01:18:28;102095.09;;;16.78;100.00
75933;BME280;64803;52.356;5.310;2023-07-08T01:20:55;102098.47;;;16.80;100.00
75933;BME280;64803;52.356;5.310;2023-07-08T01:23:23;102098.63;;;16.93;100.00
75933;BME280;64803;52.356;5.310;2023-07-08T01:25:50;102091.34;;;16.94;100.00
75933;BME280;64803;52.356;5.310;2023-07-08T01:28:16;102081.16;;;16.96;100.00
75933;BME280;64803;52.356;5.310;2023-07-08T01:30:43;102087.88;;;17.00;100.00
75933;BME280;64803;52.356;5.310;2023-07-08T01:33:17;102086.38;;;16.97;100.00
75933;BME280;64803;52.356;5.310;2023-07-08T01:35:45;102079.44;;;16.95;100.00
75933;BME280;64803;52.356;5.310;2023-07-08T01:38:14;102081.81;;;16.98;100.00
75933;BME280;64803;52.356;5.310;2023-07-08T01:40:51;102077.97;;;17.07;100.00
75933;BME280;64803;52.356;5.310;2023-07-08T01:43:18;102077.97;;;17.07;100.00
75933;BME280;64803;52.356;5.310;2023-07-08T01:45:44;102079.63;;;17.08;100.00
75933;BME280;64803;52.356;5.310;2023-07-08T01:48:14;102061.09;;;16.97;100.00
75933;BME280;64803;52.356;5.310;2023-07-08T01:50:51;102068.50;;;16.88;100.00
75933;BME280;64803;52.356;5.310;2023-07-08T01:53:28;102066.66;;;16.74;100.00
75933;BME280;64803;52.356;5.310;2023-07-08T01:55:55;102072.09;;;16.74;100.00
75933;BME280;64803;52.356;5.310;2023-07-08T01:58:21;102064.41;;;16.77;100.00
75933;BME280;64803;52.356;5.310;2023-07-08T02:00:47;102057.03;;;16.71;100.00
75933;BME280;64803;52.356;5.310;2023-07-08T02:03:15;102059.09;;;16.69;100.00
75933;BME280;64803;52.356;5.310;2023-07-08T02:05:41;102064.91;;;16.66;100.00
75933;BME280;64803;52.356;5.310;2023-07-08T02:08:08;102057.91;;;16.57;100.00
75933;BME280;64803;52.356;5.310;2023-07-08T02:10:37;102043.09;;;16.45;100.00
75933;BME280;64803;52.356;5.310;2023-07-08T02:13:03;102047.50;;;16.46;100.00
75933;BME280;64803;52.356;5.310;2023-07-08T02:15:30;102055.25;;;16.49;100.00
75933;BME280;64803;52.356;5.310;2023-07-08T02:17:56;102047.78;;;16.51;100.00
75933;BME280;64803;52.356;5.310;2023-07-08T02:20:22;102046.66;;;16.60;100.00
75933;BME280;64803;52.356;5.310;2023-07-08T02:22:48;102012.13;;;16.40;100.00
75933;BME280;64803;52.356;5.310;2023-07-08T02:25:14;102037.22;;;16.56;100.00
75933;BME280;64803;52.356;5.310;2023-07-08T02:27:42;102000.09;;;16.28;100.00
75933;BME280;64803;52.356;5.310;2023-07-08T02:30:09;102024.47;;;16.42;100.00
75933;BME280;64803;52.356;5.310;2023-07-08T02:32:35;102036.72;;;16.38;100.00
75933;BME280;64803;52.356;5.310;2023-07-08T02:35:07;102032.31;;;16.37;100.00
75933;BME280;64803;52.356;5.310;2023-07-08T02:37:34;102030.66;;;16.36;100.00
75933;BME280;64803;52.356;5.310;2023-07-08T02:40:00;102041.88;;;16.33;100.00
75933;BME280;64803;52.356;5.310;2023-07-08T02:42:26;102034.09;;;16.30;100.00
75933;BME280;64803;52.356;5.310;2023-07-08T02:44:52;102029.63;;;16.23;100.00
75933;BME280;64803;52.356;5.310;2023-07-08T02:47:18;102028.31;;;16.19;100.00
75933;BME280;64803;52.356;5.310;2023-07-08T02:49:44;102032.22;;;16.16;100.00
75933;BME280;64803;52.356;5.310;2023-07-08T02:52:11;102032.41;;;16.15;100.00
75933;BME280;64803;52.356;5.310;2023-07-08T02:54:38;102024.94;;;16.17;100.00
75933;BME280;64803;52.356;5.310;2023-07-08T02:57:04;102026.31;;;16.13;100.00
75933;BME280;64803;52.356;5.310;2023-07-08T02:59:30;102031.94;;;16.11;100.00
75933;BME280;64803;52.356;5.310;2023-07-08T03:01:56;102021.47;;;16.08;100.00
75933;BME280;64803;52.356;5.310;2023-07-08T03:04:22;102026.22;;;16.06;100.00
75933;BME280;64803;52.356;5.310;2023-07-08T03:06:51;102023.50;;;16.06;100.00
75933;BME280;64803;52.356;5.310;2023-07-08T03:09:18;102024.38;;;16.07;100.00
75933;BME280;64803;52.356;5.310;2023-07-08T03:11:44;102016.44;;;16.05;100.00
75933;BME280;64803;52.356;5.310;2023-07-08T03:14:10;102017.16;;;15.99;100.00
75933;BME280;64803;52.356;5.310;2023-07-08T03:16:36;101969.72;;;15.66;100.00
75933;BME280;64803;52.356;5.310;2023-07-08T03:19:03;102015.06;;;15.87;100.00
75933;BME280;64803;52.356;5.310;2023-07-08T03:21:30;102027.84;;;15.78;100.00
75933;BME280;64803;52.356;5.310;2023-07-08T03:23:57;102024.13;;;15.79;100.00
75933;BME280;64803;52.356;5.310;2023-07-08T03:26:25;102021.78;;;15.76;100.00
75933;BME280;64803;52.356;5.310;2023-07-08T03:28:52;102031.41;;;15.78;100.00
75933;BME280;64803;52.356;5.310;2023-07-08T03:31:20;102040.56;;;15.77;100.00
75933;BME280;64803;52.356;5.310;2023-07-08T03:33:46;102032.06;;;15.81;100.00
75933;BME280;64803;52.356;5.310;2023-07-08T03:36:15;102033.56;;;15.83;100.00
75933;BME280;64803;52.356;5.310;2023-07-08T03:38:53;102024.53;;;15.91;100.00
75933;BME280;64803;52.356;5.310;2023-07-08T03:41:20;102028.75;;;15.93;100.00
75933;BME280;64803;52.356;5.310;2023-07-08T03:43:46;102026.69;;;15.95;100.00
75933;BME280;64803;52.356;5.310;2023-07-08T03:46:15;102031.06;;;15.96;100.00
75933;BME280;64803;52.356;5.310;2023-07-08T03:48:41;102028.00;;;15.99;100.00
75933;BME280;64803;52.356;5.310;2023-07-08T03:51:12;102036.31;;;15.98;100.00
75933;BME280;64803;52.356;5.310;2023-07-08T03:53:43;102031.56;;;16.00;100.00
75933;BME280;64803;52.356;5.310;2023-07-08T03:56:11;102039.22;;;15.96;100.00
75933;BME280;64803;52.356;5.310;2023-07-08T03:58:39;102032.84;;;15.89;100.00
75933;BME280;64803;52.356;5.310;2023-07-08T04:01:12;102042.19;;;16.01;100.00
75933;BME280;64803;52.356;5.310;2023-07-08T04:03:39;102037.63;;;16.16;100.00
75933;BME280;64803;52.356;5.310;2023-07-08T04:06:05;102035.88;;;16.23;100.00
75933;BME280;64803;52.356;5.310;2023-07-08T04:08:31;102040.34;;;16.16;100.00
75933;BME280;64803;52.356;5.310;2023-07-08T04:10:57;102035.31;;;16.28;100.00
75933;BME280;64803;52.356;5.310;2023-07-08T04:13:23;102035.22;;;16.36;100.00
75933;BME280;64803;52.356;5.310;2023-07-08T04:15:56;102031.38;;;16.30;100.00
75933;BME280;64803;52.356;5.310;2023-07-08T04:18:23;102029.25;;;16.26;100.00
75933;BME280;64803;52.356;5.310;2023-07-08T04:20:49;102033.47;;;16.28;100.00
75933;BME280;64803;52.356;5.310;2023-07-08T04:23:19;102032.03;;;16.32;100.00
75933;BME280;64803;52.356;5.310;2023-07-08T04:25:47;102032.69;;;16.34;100.00
75933;BME280;64803;52.356;5.310;2023-07-08T04:28:13;102035.13;;;16.29;100.00
75933;BME280;64803;52.356;5.310;2023-07-08T04:30:39;102038.78;;;16.36;100.00
75933;BME280;64803;52.356;5.310;2023-07-08T04:33:07;102034.38;;;16.35;100.00
75933;BME280;64803;52.356;5.310;2023-07-08T04:35:35;102041.06;;;16.47;100.00
75933;BME280;64803;52.356;5.310;2023-07-08T04:38:01;102036.59;;;16.54;100.00
75933;BME280;64803;52.356;5.310;2023-07-08T04:40:27;102038.63;;;16.52;100.00
75933;BME280;64803;52.356;5.310;2023-07-08T04:42:53;102033.88;;;16.54;100.00
75933;BME280;64803;52.356;5.310;2023-07-08T04:45:19;102039.66;;;16.66;100.00
75933;BME280;64803;52.356;5.310;2023-07-08T04:47:46;102031.19;;;16.75;100.00
75933;BME280;64803;52.356;5.310;2023-07-08T04:50:18;102030.06;;;16.84;100.00
75933;BME280;64803;52.356;5.310;2023-07-08T04:52:44;102040.44;;;16.96;100.00
75933;BME280;64803;52.356;5.310;2023-07-08T04:55:13;102034.53;;;17.07;100.00
75933;BME280;64803;52.356;5.310;2023-07-08T04:57:39;102030.63;;;17.16;100.00
75933;BME280;64803;52.356;5.310;2023-07-08T05:00:06;102031.19;;;17.26;100.00
75933;BME280;64803;52.356;5.310;2023-07-08T05:02:34;102037.78;;;17.38;100.00
75933;BME280;64803;52.356;5.310;2023-07-08T05:05:00;102037.72;;;17.52;100.00
75933;BME280;64803;52.356;5.310;2023-07-08T05:07:26;102030.81;;;17.71;100.00
75933;BME280;64803;52.356;5.310;2023-07-08T05:09:52;102013.28;;;17.73;100.00
75933;BME280;64803;52.356;5.310;2023-07-08T05:12:18;102017.72;;;17.81;100.00
75933;BME280;64803;52.356;5.310;2023-07-08T05:14:44;102016.94;;;17.87;100.00
75933;BME280;64803;52.356;5.310;2023-07-08T05:17:10;102019.94;;;17.92;100.00
75933;BME280;64803;52.356;5.310;2023-07-08T05:19:36;102020.41;;;18.02;100.00
75933;BME280;64803;52.356;5.310;2023-07-08T05:22:03;102017.94;;;18.07;100.00
75933;BME280;64803;52.356;5.310;2023-07-08T05:24:29;102016.31;;;18.13;100.00
75933;BME280;64803;52.356;5.310;2023-07-08T05:26:55;102014.25;;;18.21;100.00
75933;BME280;64803;52.356;5.310;2023-07-08T05:29:21;102017.22;;;18.26;100.00
75933;BME280;64803;52.356;5.310;2023-07-08T05:31:47;102016.81;;;18.29;100.00
75933;BME280;64803;52.356;5.310;2023-07-08T05:34:14;102012.66;;;18.33;100.00
75933;BME280;64803;52.356;5.310;2023-07-08T05:36:40;102011.09;;;18.45;100.00
75933;BME280;64803;52.356;5.310;2023-07-08T05:39:06;102016.97;;;18.49;100.00
75933;BME280;64803;52.356;5.310;2023-07-08T05:41:32;102012.59;;;18.54;100.00
75933;BME280;64803;52.356;5.310;2023-07-08T05:44:01;102011.59;;;18.62;100.00
75933;BME280;64803;52.356;5.310;2023-07-08T05:46:27;102013.28;;;18.69;100.00
75933;BME280;64803;52.356;5.310;2023-07-08T05:48:53;102004.97;;;18.77;100.00
75933;BME280;64803;52.356;5.310;2023-07-08T05:51:20;102011.66;;;18.81;100.00
75933;BME280;64803;52.356;5.310;2023-07-08T05:53:46;101996.19;;;18.88;100.00
75933;BME280;64803;52.356;5.310;2023-07-08T05:56:12;102000.44;;;18.97;100.00
75933;BME280;64803;52.356;5.310;2023-07-08T05:58:38;102005.06;;;19.03;100.00
75933;BME280;64803;52.356;5.310;2023-07-08T06:01:04;101989.59;;;19.11;100.00
75933;BME280;64803;52.356;5.310;2023-07-08T06:03:30;101997.13;;;19.22;100.00
75933;BME280;64803;52.356;5.310;2023-07-08T06:05:56;101999.69;;;19.30;100.00
75933;BME280;64803;52.356;5.310;2023-07-08T06:08:23;101996.34;;;19.41;100.00
75933;BME280;64803;52.356;5.310;2023-07-08T06:10:49;101993.44;;;19.49;100.00
75933;BME280;64803;52.356;5.310;2023-07-08T06:13:16;101974.75;;;19.46;100.00
75933;BME280;64803;52.356;5.310;2023-07-08T06:15:41;101992.41;;;19.63;100.00
75933;BME280;64803;52.356;5.310;2023-07-08T06:18:08;101976.66;;;19.58;100.00
75933;BME280;64803;52.356;5.310;2023-07-08T06:20:35;101996.38;;;19.73;100.00
75933;BME280;64803;52.356;5.310;2023-07-08T06:23:01;101984.84;;;19.78;100.00
75933;BME280;64803;52.356;5.310;2023-07-08T06:25:27;101990.31;;;19.91;100.00
75933;BME280;64803;52.356;5.310;2023-07-08T06:27:53;101985.47;;;19.99;100.00
75933;BME280;64803;52.356;5.310;2023-07-08T06:30:19;101985.03;;;20.02;100.00
75933;BME280;64803;52.356;5.310;2023-07-08T06:32:45;101980.19;;;20.11;100.00
75933;BME280;64803;52.356;5.310;2023-07-08T06:35:11;101987.13;;;20.20;100.00
75933;BME280;64803;52.356;5.310;2023-07-08T06:37:37;101979.09;;;20.32;100.00
75933;BME280;64803;52.356;5.310;2023-07-08T06:40:04;101984.34;;;20.40;100.00
75933;BME280;64803;52.356;5.310;2023-07-08T06:42:30;101984.94;;;20.42;100.00
75933;BME280;64803;52.356;5.310;2023-07-08T06:45:05;101980.34;;;20.42;100.00
75933;BME280;64803;52.356;5.310;2023-07-08T06:47:31;101992.25;;;20.54;100.00
75933;BME280;64803;52.356;5.310;2023-07-08T06:49:57;101995.81;;;20.61;100.00
75933;BME280;64803;52.356;5.310;2023-07-08T06:52:23;101993.25;;;20.66;100.00
75933;BME280;64803;52.356;5.310;2023-07-08T06:54:50;101990.28;;;20.81;100.00
75933;BME280;64803;52.356;5.310;2023-07-08T06:57:16;101991.94;;;20.82;100.00
75933;BME280;64803;52.356;5.310;2023-07-08T06:59:42;101989.38;;;20.93;100.00
75933;BME280;64803;52.356;5.310;2023-07-08T07:02:08;101987.25;;;21.02;100.00
75933;BME280;64803;52.356;5.310;2023-07-08T07:04:35;101992.66;;;21.08;100.00
75933;BME280;64803;52.356;5.310;2023-07-08T07:07:01;101991.97;;;21.19;100.00
75933;BME280;64803;52.356;5.310;2023-07-08T07:09:27;101986.41;;;21.33;100.00
75933;BME280;64803;52.356;5.310;2023-07-08T07:11:53;101996.19;;;21.47;100.00
75933;BME280;64803;52.356;5.310;2023-07-08T07:14:20;101990.66;;;21.53;100.00
75933;BME280;64803;52.356;5.310;2023-07-08T07:16:46;101944.09;;;21.42;100.00
75933;BME280;64803;52.356;5.310;2023-07-08T07:19:12;101980.50;;;21.67;100.00
75933;BME280;64803;52.356;5.310;2023-07-08T07:21:38;101979.19;;;21.69;100.00
75933;BME280;64803;52.356;5.310;2023-07-08T07:24:04;101982.94;;;21.75;100.00
75933;BME280;64803;52.356;5.310;2023-07-08T07:26:32;101989.22;;;21.82;100.00
75933;BME280;64803;52.356;5.310;2023-07-08T07:28:59;101976.47;;;21.94;100.00
75933;BME280;64803;52.356;5.310;2023-07-08T07:31:25;101981.47;;;21.97;100.00
75933;BME280;64803;52.356;5.310;2023-07-08T07:33:51;101974.38;;;22.14;100.00
75933;BME280;64803;52.356;5.310;2023-07-08T07:36:17;101965.72;;;22.17;100.00
75933;BME280;64803;52.356;5.310;2023-07-08T07:38:42;101978.03;;;22.26;100.00
75933;BME280;64803;52.356;5.310;2023-07-08T07:41:08;101981.53;;;22.33;100.00
75933;BME280;64803;52.356;5.310;2023-07-08T07:43:36;101981.28;;;22.53;100.00
75933;BME280;64803;52.356;5.310;2023-07-08T07:46:03;101981.19;;;22.66;100.00
75933;BME280;64803;52.356;5.310;2023-07-08T07:48:32;101979.44;;;22.71;100.00
75933;BME280;64803;52.356;5.310;2023-07-08T07:50:58;101972.09;;;22.83;100.00
75933;BME280;64803;52.356;5.310;2023-07-08T07:53:24;101968.94;;;22.98;100.00
75933;BME280;64803;52.356;5.310;2023-07-08T07:56:00;101957.41;;;23.07;100.00
75933;BME280;64803;52.356;5.310;2023-07-08T07:58:27;101960.63;;;23.04;100.00
75933;BME280;64803;52.356;5.310;2023-07-08T08:00:53;101936.78;;;23.05;100.00
75933;BME280;64803;52.356;5.310;2023-07-08T08:03:20;101960.25;;;23.30;100.00
75933;BME280;64803;52.356;5.310;2023-07-08T08:05:46;101961.81;;;23.38;100.00
75933;BME280;64803;52.356;5.310;2023-07-08T08:08:13;101957.28;;;23.43;100.00
75933;BME280;64803;52.356;5.310;2023-07-08T08:10:39;101953.16;;;23.53;100.00
75933;BME280;64803;52.356;5.310;2023-07-08T08:13:05;101950.28;;;23.59;100.00
75933;BME280;64803;52.356;5.310;2023-07-08T08:15:31;101948.03;;;23.68;100.00
75933;BME280;64803;52.356;5.310;2023-07-08T08:17:57;101932.28;;;23.63;100.00
75933;BME280;64803;52.356;5.310;2023-07-08T08:20:24;101946.72;;;23.82;100.00
75933;BME280;64803;52.356;5.310;2023-07-08T08:22:50;101949.00;;;23.96;100.00
75933;BME280;64803;52.356;5.310;2023-07-08T08:25:18;101948.19;;;24.07;100.00
75933;BME280;64803;52.356;5.310;2023-07-08T08:27:45;101942.31;;;24.15;100.00
75933;BME280;64803;52.356;5.310;2023-07-08T08:30:11;101929.44;;;24.16;100.00
75933;BME280;64803;52.356;5.310;2023-07-08T08:32:38;101936.34;;;24.30;100.00
75933;BME280;64803;52.356;5.310;2023-07-08T08:35:04;101936.69;;;24.33;100.00
75933;BME280;64803;52.356;5.310;2023-07-08T08:37:30;101942.75;;;24.47;100.00
75933;BME280;64803;52.356;5.310;2023-07-08T08:39:56;101931.50;;;24.48;100.00
75933;BME280;64803;52.356;5.310;2023-07-08T08:42:28;101953.78;;;24.64;100.00
75933;BME280;64803;52.356;5.310;2023-07-08T08:44:58;101944.56;;;24.81;100.00
75933;BME280;64803;52.356;5.310;2023-07-08T08:47:40;101949.56;;;24.84;100.00
75933;BME280;64803;52.356;5.310;2023-07-08T08:52:42;101958.28;;;25.09;100.00
75933;BME280;64803;52.356;5.310;2023-07-08T08:55:12;101958.38;;;25.14;100.00
75933;BME280;64803;52.356;5.310;2023-07-08T08:57:45;101954.66;;;25.20;100.00
75933;BME280;64803;52.356;5.310;2023-07-08T09:00:21;101956.91;;;25.23;100.00
75933;BME280;64803;52.356;5.310;2023-07-08T09:03:04;101955.53;;;25.37;100.00
75933;BME280;64803;52.356;5.310;2023-07-08T09:05:33;101958.44;;;25.47;100.00
75933;BME280;64803;52.356;5.310;2023-07-08T09:08:20;101953.88;;;25.70;100.00
75933;BME280;64803;52.356;5.310;2023-07-08T09:11:05;101955.22;;;25.84;100.00
75933;BME280;64803;52.356;5.310;2023-07-08T09:13:37;101959.09;;;25.88;100.00
75933;BME280;64803;52.356;5.310;2023-07-08T09:16:14;101956.53;;;25.98;100.00
75933;BME280;64803;52.356;5.310;2023-07-08T09:19:15;101958.94;;;26.11;100.00
75933;BME280;64803;52.356;5.310;2023-07-08T09:24:41;101960.81;;;26.27;100.00
75933;BME280;64803;52.356;5.310;2023-07-08T09:27:08;101956.31;;;26.21;100.00
75933;BME280;64803;52.356;5.310;2023-07-08T09:29:34;101953.81;;;26.19;100.00
75933;BME280;64803;52.356;5.310;2023-07-08T09:32:13;101953.28;;;26.39;100.00
75933;BME280;64803;52.356;5.310;2023-07-08T09:34:50;101950.31;;;26.45;100.00
75933;BME280;64803;52.356;5.310;2023-07-08T09:39:58;101954.34;;;26.59;100.00
75933;BME280;64803;52.356;5.310;2023-07-08T09:42:30;101949.34;;;26.78;100.00
75933;BME280;64803;52.356;5.310;2023-07-08T09:45:02;101949.53;;;26.93;100.00
75933;BME280;64803;52.356;5.310;2023-07-08T09:47:36;101950.78;;;26.81;100.00
75933;BME280;64803;52.356;5.310;2023-07-08T09:50:17;101952.75;;;26.85;100.00
75933;BME280;64803;52.356;5.310;2023-07-08T09:52:46;101952.97;;;27.05;100.00
75933;BME280;64803;52.356;5.310;2023-07-08T09:55:12;101951.69;;;27.13;100.00
75933;BME280;64803;52.356;5.310;2023-07-08T09:57:39;101957.13;;;27.08;100.00
75933;BME280;64803;52.356;5.310;2023-07-08T10:00:14;101945.31;;;27.12;100.00
75933;BME280;64803;52.356;5.310;2023-07-08T10:02:49;101950.78;;;27.07;100.00
75933;BME280;64803;52.356;5.310;2023-07-08T10:05:22;101950.41;;;27.25;100.00
75933;BME280;64803;52.356;5.310;2023-07-08T10:07:53;101949.91;;;27.28;100.00
75933;BME280;64803;52.356;5.310;2023-07-08T10:10:26;101948.41;;;27.42;100.00
75933;BME280;64803;52.356;5.310;2023-07-08T10:13:11;101946.03;;;27.56;100.00
75933;BME280;64803;52.356;5.310;2023-07-08T10:15:44;101948.22;;;27.54;100.00
75933;BME280;64803;52.356;5.310;2023-07-08T10:18:19;101944.66;;;27.58;100.00
75933;BME280;64803;52.356;5.310;2023-07-08T10:26:27;101947.28;;;28.12;100.00
75933;BME280;64803;52.356;5.310;2023-07-08T10:37:36;101948.66;;;28.14;100.00
75933;BME280;64803;52.356;5.310;2023-07-08T10:56:31;101929.38;;;28.96;100.00
75933;BME280;64803;52.356;5.310;2023-07-08T11:07:18;101936.38;;;29.39;100.00
75933;BME280;64803;52.356;5.310;2023-07-08T11:09:57;101931.69;;;29.49;100.00
75933;BME280;64803;52.356;5.310;2023-07-08T11:12:33;101925.84;;;29.56;100.00
75933;BME280;64803;52.356;5.310;2023-07-08T11:15:15;101934.44;;;29.59;100.00
75933;BME280;64803;52.356;5.310;2023-07-08T11:17:53;101930.53;;;29.55;95.56
75933;BME280;64803;52.356;5.310;2023-07-08T11:23:22;101910.56;;;30.04;100.00
75933;BME280;64803;52.356;5.310;2023-07-08T11:25:50;101912.72;;;30.22;100.00
75933;BME280;64803;52.356;5.310;2023-07-08T11:28:21;101906.56;;;30.40;100.00
75933;BME280;64803;52.356;5.310;2023-07-08T11:30:50;101909.81;;;30.57;100.00
75933;BME280;64803;52.356;5.310;2023-07-08T11:33:19;101906.16;;;30.66;100.00
75933;BME280;64803;52.356;5.310;2023-07-08T11:35:52;101904.84;;;30.54;88.42
75933;BME280;64803;52.356;5.310;2023-07-08T11:38:22;101901.94;;;30.15;89.59
75933;BME280;64803;52.356;5.310;2023-07-08T11:41:00;101906.91;;;30.23;96.75
75933;BME280;64803;52.356;5.310;2023-07-08T11:43:33;101903.31;;;30.28;94.41
75933;BME280;64803;52.356;5.310;2023-07-08T11:46:04;101909.94;;;30.27;96.47
75933;BME280;64803;52.356;5.310;2023-07-08T11:48:39;101901.31;;;30.38;88.92
75933;BME280;64803;52.356;5.310;2023-07-08T11:51:08;101901.84;;;30.45;86.40
75933;BME280;64803;52.356;5.310;2023-07-08T11:53:37;101897.66;;;30.53;95.50
75933;BME280;64803;52.356;5.310;2023-07-08T12:01:46;101890.22;;;30.92;92.77
75933;BME280;64803;52.356;5.310;2023-07-08T12:11:45;101885.47;;;31.36;100.00
75933;BME280;64803;52.356;5.310;2023-07-08T12:14:12;101881.88;;;31.59;87.86
75933;BME280;64803;52.356;5.310;2023-07-08T12:16:40;101886.22;;;31.70;88.36
75933;BME280;64803;52.356;5.310;2023-07-08T12:19:11;101884.53;;;31.74;94.60
75933;BME280;64803;52.356;5.310;2023-07-08T12:21:41;101875.97;;;31.94;86.59
75933;BME280;64803;52.356;5.310;2023-07-08T12:24:07;101873.59;;;32.07;93.19
75933;BME280;64803;52.356;5.310;2023-07-08T12:26:36;101872.75;;;31.82;90.98
75933;BME280;64803;52.356;5.310;2023-07-08T12:29:02;101875.75;;;31.91;83.05
75933;BME280;64803;52.356;5.310;2023-07-08T12:31:29;101869.59;;;32.18;91.77
75933;BME280;64803;52.356;5.310;2023-07-08T12:33:57;101872.63;;;32.40;93.30
75933;BME280;64803;52.356;5.310;2023-07-08T12:36:28;101866.38;;;32.53;86.88
75933;BME280;64803;52.356;5.310;2023-07-08T12:38:58;101868.63;;;32.69;94.06
75933;BME280;64803;52.356;5.310;2023-07-08T12:41:29;101875.38;;;32.82;86.41
75933;BME280;64803;52.356;5.310;2023-07-08T12:43:55;101865.19;;;32.96;90.04
75933;BME280;64803;52.356;5.310;2023-07-08T12:46:22;101865.63;;;33.03;87.12
75933;BME280;64803;52.356;5.310;2023-07-08T12:48:49;101859.13;;;32.89;77.40
75933;BME280;64803;52.356;5.310;2023-07-08T12:51:17;101864.78;;;33.02;83.77
75933;BME280;64803;52.356;5.310;2023-07-08T12:53:44;101857.41;;;33.12;80.09
75933;BME280;64803;52.356;5.310;2023-07-08T12:56:10;101858.03;;;33.09;79.60
75933;BME280;64803;52.356;5.310;2023-07-08T12:58:40;101858.84;;;33.09;83.24
75933;BME280;64803;52.356;5.310;2023-07-08T13:01:08;101856.59;;;32.92;73.62
75933;BME280;64803;52.356;5.310;2023-07-08T13:03:37;101848.78;;;32.76;82.04
75933;BME280;64803;52.356;5.310;2023-07-08T13:06:09;101854.56;;;32.98;85.62
75933;BME280;64803;52.356;5.310;2023-07-08T13:08:37;101852.66;;;33.12;75.29
75933;BME280;64803;52.356;5.310;2023-07-08T13:11:04;101850.53;;;33.23;86.33
75933;BME280;64803;52.356;5.310;2023-07-08T13:13:37;101859.38;;;33.43;81.37
75933;BME280;64803;52.356;5.310;2023-07-08T13:16:04;101857.56;;;33.52;79.57
75933;BME280;64803;52.356;5.310;2023-07-08T13:20:59;101857.19;;;33.08;79.28
75933;BME280;64803;52.356;5.310;2023-07-08T13:23:26;101853.09;;;33.19;82.66
75933;BME280;64803;52.356;5.310;2023-07-08T13:25:54;101851.50;;;33.32;65.87
75933;BME280;64803;52.356;5.310;2023-07-08T13:30:59;101853.41;;;33.63;84.60
75933;BME280;64803;52.356;5.310;2023-07-08T13:33:33;101847.47;;;33.70;68.47
75933;BME280;64803;52.356;5.310;2023-07-08T13:36:04;101849.53;;;33.91;65.22
75933;BME280;64803;52.356;5.310;2023-07-08T13:38:35;101847.28;;;33.93;66.73
75933;BME280;64803;52.356;5.310;2023-07-08T13:41:05;101847.69;;;34.00;69.53
75933;BME280;64803;52.356;5.310;2023-07-08T13:43:36;101848.97;;;33.94;66.40
75933;BME280;64803;52.356;5.310;2023-07-08T13:46:04;101828.47;;;33.85;65.49
75933;BME280;64803;52.356;5.310;2023-07-08T13:48:35;101839.44;;;33.95;71.40
75933;BME280;64803;52.356;5.310;2023-07-08T13:51:10;101837.25;;;33.92;75.85
75933;BME280;64803;52.356;5.310;2023-07-08T13:56:27;101834.47;;;33.92;61.45
75933;BME280;64803;52.356;5.310;2023-07-08T13:59:02;101841.50;;;34.03;64.57
75933;BME280;64803;52.356;5.310;2023-07-08T14:01:30;101839.03;;;34.16;73.96
75933;BME280;64803;52.356;5.310;2023-07-08T14:03:57;101835.78;;;34.36;76.36
75933;BME280;64803;52.356;5.310;2023-07-08T14:06:24;101838.75;;;34.53;62.00